sensor_id;sensor_type;location;lat;lon;timestamp;P1;durP1;ratioP1;P2;durP2;ratioP2
68168;SDS011;54981;50.206;15.978;2024-03-07T00:00:49;22.65;;;20.85;;
68168;SDS011;54981;50.206;15.978;2024-03-07T00:15:53;17.85;;;16.00;;
68168;SDS011;54981;50.206;15.978;2024-03-07T00:30:54;16.60;;;15.00;;
68168;SDS011;54981;50.206;15.978;2024-03-07T00:45:55;16.13;;;13.98;;
68168;SDS011;54981;50.206;15.978;2024-03-07T01:00:55;15.63;;;14.32;;
68168;SDS011;54981;50.206;15.978;2024-03-07T01:15:56;16.55;;;15.05;;
68168;SDS011;54981;50.206;15.978;2024-03-07T01:30:57;16.23;;;14.82;;
68168;SDS011;54981;50.206;15.978;2024-03-07T01:45:58;17.42;;;15.85;;
68168;SDS011;54981;50.206;15.978;2024-03-07T02:00:59;16.27;;;14.88;;
68168;SDS011;54981;50.206;15.978;2024-03-07T02:16:00;16.50;;;14.95;;
68168;SDS011;54981;50.206;15.978;2024-03-07T02:31:00;18.80;;;16.92;;
68168;SDS011;54981;50.206;15.978;2024-03-07T02:46:01;20.02;;;18.08;;
68168;SDS011;54981;50.206;15.978;2024-03-07T03:01:01;22.13;;;19.70;;
68168;SDS011;54981;50.206;15.978;2024-03-07T03:16:05;41.60;;;26.20;;
68168;SDS011;54981;50.206;15.978;2024-03-07T03:31:09;45.65;;;32.88;;
68168;SDS011;54981;50.206;15.978;2024-03-07T03:46:10;43.88;;;30.67;;
68168;SDS011;54981;50.206;15.978;2024-03-07T04:01:11;37.78;;;29.08;;
68168;SDS011;54981;50.206;15.978;2024-03-07T04:16:14;44.92;;;34.33;;
68168;SDS011;54981;50.206;15.978;2024-03-07T04:31:15;32.60;;;27.05;;
68168;SDS011;54981;50.206;15.978;2024-03-07T04:46:16;30.97;;;23.37;;
68168;SDS011;54981;50.206;15.978;2024-03-07T05:01:17;25.83;;;23.02;;
68168;SDS011;54981;50.206;15.978;2024-03-07T05:16:17;31.15;;;22.42;;
68168;SDS011;54981;50.206;15.978;2024-03-07T05:31:18;29.20;;;23.60;;
68168;SDS011;54981;50.206;15.978;2024-03-07T05:46:20;32.75;;;25.25;;
68168;SDS011;54981;50.206;15.978;2024-03-07T06:01:20;36.40;;;24.30;;
68168;SDS011;54981;50.206;15.978;2024-03-07T06:16:20;37.13;;;26.15;;
68168;SDS011;54981;50.206;15.978;2024-03-07T06:31:21;37.83;;;29.35;;
68168;SDS011;54981;50.206;15.978;2024-03-07T06:46:21;38.08;;;24.77;;
68168;SDS011;54981;50.206;15.978;2024-03-07T07:01:21;27.27;;;24.15;;
68168;SDS011;54981;50.206;15.978;2024-03-07T07:16:22;35.75;;;26.52;;
68168;SDS011;54981;50.206;15.978;2024-03-07T07:31:23;37.30;;;26.37;;
68168;SDS011;54981;50.206;15.978;2024-03-07T07:46:25;32.72;;;27.75;;
68168;SDS011;54981;50.206;15.978;2024-03-07T08:01:25;27.92;;;21.90;;
68168;SDS011;54981;50.206;15.978;2024-03-07T08:16:25;29.73;;;24.75;;
68168;SDS011;54981;50.206;15.978;2024-03-07T08:31:26;25.05;;;22.42;;
68168;SDS011;54981;50.206;15.978;2024-03-07T08:46:26;27.13;;;24.25;;
68168;SDS011;54981;50.206;15.978;2024-03-07T09:01:27;31.30;;;25.60;;
68168;SDS011;54981;50.206;15.978;2024-03-07T09:16:28;32.70;;;27.23;;
68168;SDS011;54981;50.206;15.978;2024-03-07T09:31:28;44.67;;;31.92;;
68168;SDS011;54981;50.206;15.978;2024-03-07T09:46:29;33.90;;;25.92;;
68168;SDS011;54981;50.206;15.978;2024-03-07T10:01:32;33.45;;;24.83;;
68168;SDS011;54981;50.206;15.978;2024-03-07T10:16:34;33.67;;;27.88;;
68168;SDS011;54981;50.206;15.978;2024-03-07T10:31:37;32.65;;;25.15;;
68168;SDS011;54981;50.206;15.978;2024-03-07T10:46:38;30.63;;;26.52;;
68168;SDS011;54981;50.206;15.978;2024-03-07T11:01:45;27.58;;;22.60;;
68168;SDS011;54981;50.206;15.978;2024-03-07T11:16:54;27.75;;;23.60;;
68168;SDS011;54981;50.206;15.978;2024-03-07T11:31:55;26.60;;;21.63;;
68168;SDS011;54981;50.206;15.978;2024-03-07T11:46:55;23.90;;;21.45;;
68168;SDS011;54981;50.206;15.978;2024-03-07T12:01:55;27.27;;;24.65;;
68168;SDS011;54981;50.206;15.978;2024-03-07T12:16:57;27.05;;;24.75;;
68168;SDS011;54981;50.206;15.978;2024-03-07T12:31:58;27.60;;;25.15;;
68168;SDS011;54981;50.206;15.978;2024-03-07T12:46:59;29.17;;;26.48;;
68168;SDS011;54981;50.206;15.978;2024-03-07T13:02:00;27.65;;;25.33;;
68168;SDS011;54981;50.206;15.978;2024-03-07T13:17:00;26.00;;;23.70;;
68168;SDS011;54981;50.206;15.978;2024-03-07T13:32:04;29.00;;;26.30;;
68168;SDS011;54981;50.206;15.978;2024-03-07T13:47:07;25.02;;;20.92;;
68168;SDS011;54981;50.206;15.978;2024-03-07T14:02:25;34.30;;;31.13;;
68168;SDS011;54981;50.206;15.978;2024-03-07T14:33:20;29.65;;;25.73;;
68168;SDS011;54981;50.206;15.978;2024-03-07T14:48:43;38.33;;;34.83;;
68168;SDS011;54981;50.206;15.978;2024-03-07T15:03:43;32.10;;;24.80;;
68168;SDS011;54981;50.206;15.978;2024-03-07T15:18:45;41.67;;;37.67;;
68168;SDS011;54981;50.206;15.978;2024-03-07T15:33:46;30.90;;;27.13;;
68168;SDS011;54981;50.206;15.978;2024-03-07T15:48:47;29.73;;;24.65;;
68168;SDS011;54981;50.206;15.978;2024-03-07T16:03:48;30.03;;;21.80;;
68168;SDS011;54981;50.206;15.978;2024-03-07T16:18:49;36.30;;;25.80;;
68168;SDS011;54981;50.206;15.978;2024-03-07T16:33:49;33.58;;;27.30;;
68168;SDS011;54981;50.206;15.978;2024-03-07T16:48:50;35.55;;;26.17;;
68168;SDS011;54981;50.206;15.978;2024-03-07T17:03:50;34.13;;;24.80;;
68168;SDS011;54981;50.206;15.978;2024-03-07T17:18:50;38.78;;;31.98;;
68168;SDS011;54981;50.206;15.978;2024-03-07T17:33:51;38.92;;;30.27;;
68168;SDS011;54981;50.206;15.978;2024-03-07T17:48:51;47.03;;;31.17;;
68168;SDS011;54981;50.206;15.978;2024-03-07T18:03:52;44.70;;;30.52;;
68168;SDS011;54981;50.206;15.978;2024-03-07T18:18:54;40.45;;;29.85;;
68168;SDS011;54981;50.206;15.978;2024-03-07T18:33:56;46.63;;;33.10;;
68168;SDS011;54981;50.206;15.978;2024-03-07T18:48:56;43.08;;;31.85;;
68168;SDS011;54981;50.206;15.978;2024-03-07T19:03:56;41.80;;;31.38;;
68168;SDS011;54981;50.206;15.978;2024-03-07T19:18:57;49.45;;;33.03;;
68168;SDS011;54981;50.206;15.978;2024-03-07T19:33:57;48.03;;;30.98;;
68168;SDS011;54981;50.206;15.978;2024-03-07T19:48:58;49.25;;;33.20;;
68168;SDS011;54981;50.206;15.978;2024-03-07T20:03:58;48.55;;;33.53;;
68168;SDS011;54981;50.206;15.978;2024-03-07T20:19:00;49.08;;;32.13;;
68168;SDS011;54981;50.206;15.978;2024-03-07T20:34:00;49.55;;;33.25;;
68168;SDS011;54981;50.206;15.978;2024-03-07T20:49:01;51.95;;;39.47;;
68168;SDS011;54981;50.206;15.978;2024-03-07T21:04:01;56.90;;;37.83;;
68168;SDS011;54981;50.206;15.978;2024-03-07T21:19:01;48.50;;;32.92;;
68168;SDS011;54981;50.206;15.978;2024-03-07T21:34:04;52.63;;;36.58;;
68168;SDS011;54981;50.206;15.978;2024-03-07T21:49:05;53.20;;;35.22;;
68168;SDS011;54981;50.206;15.978;2024-03-07T22:04:07;51.67;;;34.47;;
68168;SDS011;54981;50.206;15.978;2024-03-07T22:19:07;62.08;;;38.58;;
68168;SDS011;54981;50.206;15.978;2024-03-07T22:34:08;47.63;;;37.10;;
68168;SDS011;54981;50.206;15.978;2024-03-07T22:49:10;64.38;;;38.75;;
68168;SDS011;54981;50.206;15.978;2024-03-07T23:04:10;56.83;;;37.13;;
68168;SDS011;54981;50.206;15.978;2024-03-07T23:19:13;55.38;;;39.22;;
68168;SDS011;54981;50.206;15.978;2024-03-07T23:34:13;52.65;;;38.75;;
68168;SDS011;54981;50.206;15.978;2024-03-07T23:49:14;74.50;;;44.92;;
